Terminal Aerodrome Forecast
Issued by NWS Kansas City/Pleasant Hill, MO

Home | Current Version | Previous Version | Text Only | Print | Product List | Glossary Off
Versions: 1 2 3 4 5 6 7 8 9 10 11 12 13 14 15 16 17 18 19 20

000
FTUS43 KEAX 281227 AAA
TAFMCI
TAF AMD
KMCI 281227Z 2812/2912 09010KT P6SM -SHRA SCT007 OVC045
      TEMPO 2812/2814 5SM SHRA BKN007
     FM281400 08010KT P6SM OVC015
     FM282100 04008KT P6SM BKN020
     FM290300 03010KT P6SM BKN012
     FM291000 02012KT P6SM -SHRA OVC008=

USA.gov is the U.S. government's official web portal to all federal, state and local government web resources and services.